sensor_id;sensor_type;location;lat;lon;timestamp;pressure;altitude;pressure_sealevel;temperature;humidity
78407;BME280;67692;51.074;-1.790;2023-09-19T00:02:02;100353.22;;;15.18;70.61
78407;BME280;67692;51.074;-1.790;2023-09-19T00:04:30;100347.91;;;15.10;71.43
78407;BME280;67692;51.074;-1.790;2023-09-19T00:06:57;100345.69;;;15.15;71.47
78407;BME280;67692;51.074;-1.790;2023-09-19T00:09:24;100338.53;;;15.17;71.35
78407;BME280;67692;51.074;-1.790;2023-09-19T00:11:53;100341.03;;;15.19;71.40
78407;BME280;67692;51.074;-1.790;2023-09-19T00:14:19;100342.09;;;15.16;71.29
78407;BME280;67692;51.074;-1.790;2023-09-19T00:16:49;100347.31;;;15.16;71.60
78407;BME280;67692;51.074;-1.790;2023-09-19T00:19:17;100352.00;;;15.13;71.46
78407;BME280;67692;51.074;-1.790;2023-09-19T00:21:44;100349.56;;;15.11;71.74
78407;BME280;67692;51.074;-1.790;2023-09-19T00:24:11;100345.84;;;15.04;72.16
78407;BME280;67692;51.074;-1.790;2023-09-19T00:26:38;100349.16;;;15.06;71.84
78407;BME280;67692;51.074;-1.790;2023-09-19T00:29:05;100352.84;;;15.04;72.08
78407;BME280;67692;51.074;-1.790;2023-09-19T00:31:34;100354.38;;;15.06;72.20
78407;BME280;67692;51.074;-1.790;2023-09-19T00:34:03;100356.03;;;15.07;72.06
78407;BME280;67692;51.074;-1.790;2023-09-19T00:36:37;100351.78;;;15.06;72.01
78407;BME280;67692;51.074;-1.790;2023-09-19T00:39:04;100352.59;;;15.07;71.59
78407;BME280;67692;51.074;-1.790;2023-09-19T00:41:31;100353.69;;;15.04;72.14
78407;BME280;67692;51.074;-1.790;2023-09-19T00:44:01;100352.03;;;15.03;72.30
78407;BME280;67692;51.074;-1.790;2023-09-19T00:46:27;100353.16;;;15.01;71.58
78407;BME280;67692;51.074;-1.790;2023-09-19T00:48:54;100353.69;;;15.04;71.47
78407;BME280;67692;51.074;-1.790;2023-09-19T00:51:22;100348.06;;;15.09;71.54
78407;BME280;67692;51.074;-1.790;2023-09-19T00:53:52;100350.13;;;15.05;71.05
78407;BME280;67692;51.074;-1.790;2023-09-19T00:56:19;100357.25;;;15.03;71.26
78407;BME280;67692;51.074;-1.790;2023-09-19T00:58:46;100347.78;;;15.02;71.17
78407;BME280;67692;51.074;-1.790;2023-09-19T01:01:13;100344.66;;;14.99;71.52
78407;BME280;67692;51.074;-1.790;2023-09-19T01:03:40;100343.84;;;14.98;71.76
78407;BME280;67692;51.074;-1.790;2023-09-19T01:06:08;100335.88;;;15.00;72.10
78407;BME280;67692;51.074;-1.790;2023-09-19T01:08:34;100336.16;;;14.97;71.70
78407;BME280;67692;51.074;-1.790;2023-09-19T01:11:11;100340.25;;;14.99;71.80
78407;BME280;67692;51.074;-1.790;2023-09-19T01:13:48;100336.69;;;15.00;71.73
78407;BME280;67692;51.074;-1.790;2023-09-19T01:16:29;100344.38;;;15.02;72.07
78407;BME280;67692;51.074;-1.790;2023-09-19T01:19:05;100342.88;;;14.99;72.44
78407;BME280;67692;51.074;-1.790;2023-09-19T01:21:39;100335.47;;;14.95;72.43
78407;BME280;67692;51.074;-1.790;2023-09-19T01:24:33;100323.25;;;14.95;72.54
78407;BME280;67692;51.074;-1.790;2023-09-19T01:27:21;100327.69;;;14.85;73.11
78407;BME280;67692;51.074;-1.790;2023-09-19T01:29:52;100331.00;;;14.77;73.29
78407;BME280;67692;51.074;-1.790;2023-09-19T01:32:21;100340.34;;;14.80;73.46
78407;BME280;67692;51.074;-1.790;2023-09-19T01:34:52;100338.00;;;14.77;73.35
78407;BME280;67692;51.074;-1.790;2023-09-19T01:37:21;100327.00;;;14.83;73.49
78407;BME280;67692;51.074;-1.790;2023-09-19T01:39:53;100329.03;;;14.89;73.60
78407;BME280;67692;51.074;-1.790;2023-09-19T01:42:28;100339.47;;;14.89;73.61
78407;BME280;67692;51.074;-1.790;2023-09-19T01:45:03;100339.19;;;14.92;73.53
78407;BME280;67692;51.074;-1.790;2023-09-19T01:47:38;100324.38;;;14.93;73.18
78407;BME280;67692;51.074;-1.790;2023-09-19T01:50:13;100326.03;;;14.94;73.14
78407;BME280;67692;51.074;-1.790;2023-09-19T01:52:48;100322.59;;;14.93;73.38
78407;BME280;67692;51.074;-1.790;2023-09-19T01:55:16;100319.31;;;14.91;73.69
78407;BME280;67692;51.074;-1.790;2023-09-19T01:57:49;100329.75;;;14.91;73.34
78407;BME280;67692;51.074;-1.790;2023-09-19T02:00:21;100325.75;;;14.87;73.52
78407;BME280;67692;51.074;-1.790;2023-09-19T02:02:51;100327.94;;;14.92;73.73
78407;BME280;67692;51.074;-1.790;2023-09-19T02:05:24;100319.56;;;14.88;74.23
78407;BME280;67692;51.074;-1.790;2023-09-19T02:07:51;100319.56;;;14.88;73.47
78407;BME280;67692;51.074;-1.790;2023-09-19T02:10:19;100330.88;;;14.79;73.95
78407;BME280;67692;51.074;-1.790;2023-09-19T02:12:45;100333.47;;;14.79;74.46
78407;BME280;67692;51.074;-1.790;2023-09-19T02:15:13;100327.97;;;14.82;74.40
78407;BME280;67692;51.074;-1.790;2023-09-19T02:17:41;100327.44;;;14.78;74.54
78407;BME280;67692;51.074;-1.790;2023-09-19T02:20:10;100320.84;;;14.74;75.33
78407;BME280;67692;51.074;-1.790;2023-09-19T02:22:40;100322.50;;;14.75;75.24
78407;BME280;67692;51.074;-1.790;2023-09-19T02:25:07;100325.66;;;14.79;75.30
78407;BME280;67692;51.074;-1.790;2023-09-19T02:27:34;100321.13;;;14.81;75.09
78407;BME280;67692;51.074;-1.790;2023-09-19T02:30:01;100317.16;;;14.77;75.33
78407;BME280;67692;51.074;-1.790;2023-09-19T02:32:29;100313.72;;;14.76;76.05
78407;BME280;67692;51.074;-1.790;2023-09-19T02:34:56;100312.91;;;14.76;75.87
78407;BME280;67692;51.074;-1.790;2023-09-19T02:37:25;100306.84;;;14.75;76.02
78407;BME280;67692;51.074;-1.790;2023-09-19T02:39:52;100309.19;;;14.78;76.02
78407;BME280;67692;51.074;-1.790;2023-09-19T02:42:18;100304.94;;;14.77;76.05
78407;BME280;67692;51.074;-1.790;2023-09-19T02:44:45;100295.06;;;14.81;75.80
78407;BME280;67692;51.074;-1.790;2023-09-19T02:47:13;100292.97;;;14.84;76.43
78407;BME280;67692;51.074;-1.790;2023-09-19T02:49:41;100292.00;;;14.85;75.98
78407;BME280;67692;51.074;-1.790;2023-09-19T02:52:08;100290.81;;;14.80;76.24
78407;BME280;67692;51.074;-1.790;2023-09-19T02:54:37;100293.78;;;14.85;76.36
78407;BME280;67692;51.074;-1.790;2023-09-19T02:57:04;100292.28;;;14.82;76.69
78407;BME280;67692;51.074;-1.790;2023-09-19T02:59:32;100289.00;;;14.80;76.49
78407;BME280;67692;51.074;-1.790;2023-09-19T03:01:59;100275.97;;;14.80;76.64
78407;BME280;67692;51.074;-1.790;2023-09-19T03:04:28;100277.47;;;14.83;77.13
78407;BME280;67692;51.074;-1.790;2023-09-19T03:06:56;100272.25;;;14.83;77.10
78407;BME280;67692;51.074;-1.790;2023-09-19T03:09:25;100276.50;;;14.84;76.77
78407;BME280;67692;51.074;-1.790;2023-09-19T03:11:53;100267.06;;;14.83;77.28
78407;BME280;67692;51.074;-1.790;2023-09-19T03:14:20;100276.22;;;14.87;77.50
78407;BME280;67692;51.074;-1.790;2023-09-19T03:16:48;100274.28;;;14.89;76.97
78407;BME280;67692;51.074;-1.790;2023-09-19T03:19:15;100271.41;;;14.92;77.40
78407;BME280;67692;51.074;-1.790;2023-09-19T03:21:42;100268.66;;;14.94;77.30
78407;BME280;67692;51.074;-1.790;2023-09-19T03:24:09;100269.47;;;14.94;77.40
78407;BME280;67692;51.074;-1.790;2023-09-19T03:26:36;100262.34;;;14.96;77.68
78407;BME280;67692;51.074;-1.790;2023-09-19T03:29:05;100260.41;;;14.98;77.65
78407;BME280;67692;51.074;-1.790;2023-09-19T03:31:33;100266.13;;;15.02;77.71
78407;BME280;67692;51.074;-1.790;2023-09-19T03:34:02;100268.59;;;15.03;78.00
78407;BME280;67692;51.074;-1.790;2023-09-19T03:36:29;100272.44;;;15.09;78.04
78407;BME280;67692;51.074;-1.790;2023-09-19T03:38:56;100262.00;;;15.09;77.86
78407;BME280;67692;51.074;-1.790;2023-09-19T03:41:22;100257.31;;;15.12;77.81
78407;BME280;67692;51.074;-1.790;2023-09-19T03:43:49;100246.56;;;15.15;78.22
78407;BME280;67692;51.074;-1.790;2023-09-19T03:46:17;100241.22;;;15.17;78.45
78407;BME280;67692;51.074;-1.790;2023-09-19T03:48:43;100236.16;;;15.15;77.60
78407;BME280;67692;51.074;-1.790;2023-09-19T03:51:10;100218.72;;;15.16;78.40
78407;BME280;67692;51.074;-1.790;2023-09-19T03:53:37;100229.81;;;15.18;78.44
78407;BME280;67692;51.074;-1.790;2023-09-19T03:56:03;100206.47;;;15.16;78.20
78407;BME280;67692;51.074;-1.790;2023-09-19T03:58:30;100199.31;;;15.18;78.73
78407;BME280;67692;51.074;-1.790;2023-09-19T04:00:57;100194.09;;;15.18;78.51
78407;BME280;67692;51.074;-1.790;2023-09-19T04:03:26;100195.78;;;15.20;78.81
78407;BME280;67692;51.074;-1.790;2023-09-19T04:06:00;100194.66;;;15.22;79.11
78407;BME280;67692;51.074;-1.790;2023-09-19T04:08:27;100207.41;;;15.25;78.94
78407;BME280;67692;51.074;-1.790;2023-09-19T04:10:53;100195.47;;;15.23;79.19
78407;BME280;67692;51.074;-1.790;2023-09-19T04:13:20;100195.63;;;15.21;79.88
78407;BME280;67692;51.074;-1.790;2023-09-19T04:15:47;100201.94;;;15.18;79.82
78407;BME280;67692;51.074;-1.790;2023-09-19T04:18:14;100200.84;;;15.21;80.04
78407;BME280;67692;51.074;-1.790;2023-09-19T04:20:47;100203.72;;;15.18;80.14
78407;BME280;67692;51.074;-1.790;2023-09-19T04:23:14;100203.22;;;15.14;80.00
78407;BME280;67692;51.074;-1.790;2023-09-19T04:25:40;100201.25;;;15.16;80.36
78407;BME280;67692;51.074;-1.790;2023-09-19T04:28:07;100198.28;;;15.11;80.69
78407;BME280;67692;51.074;-1.790;2023-09-19T04:30:35;100200.44;;;15.16;80.58
78407;BME280;67692;51.074;-1.790;2023-09-19T04:33:02;100193.28;;;15.18;80.97
78407;BME280;67692;51.074;-1.790;2023-09-19T04:35:30;100184.06;;;15.24;81.22
78407;BME280;67692;51.074;-1.790;2023-09-19T04:37:58;100185.47;;;15.18;81.21
78407;BME280;67692;51.074;-1.790;2023-09-19T04:43:05;100182.28;;;15.24;81.55
78407;BME280;67692;51.074;-1.790;2023-09-19T04:45:38;100182.13;;;15.26;81.93
78407;BME280;67692;51.074;-1.790;2023-09-19T04:48:05;100170.44;;;15.30;82.01
78407;BME280;67692;51.074;-1.790;2023-09-19T04:50:34;100169.84;;;15.36;82.10
78407;BME280;67692;51.074;-1.790;2023-09-19T04:53:04;100165.44;;;15.36;81.85
78407;BME280;67692;51.074;-1.790;2023-09-19T04:55:30;100171.19;;;15.40;82.22
78407;BME280;67692;51.074;-1.790;2023-09-19T04:57:58;100172.81;;;15.41;82.17
78407;BME280;67692;51.074;-1.790;2023-09-19T05:00:24;100185.72;;;15.42;82.01
78407;BME280;67692;51.074;-1.790;2023-09-19T05:02:55;100174.59;;;15.40;82.66
78407;BME280;67692;51.074;-1.790;2023-09-19T05:05:22;100182.75;;;15.37;82.77
78407;BME280;67692;51.074;-1.790;2023-09-19T05:07:50;100178.03;;;15.41;82.90
78407;BME280;67692;51.074;-1.790;2023-09-19T05:10:20;100184.44;;;15.46;83.01
78407;BME280;67692;51.074;-1.790;2023-09-19T05:12:47;100180.84;;;15.47;83.20
78407;BME280;67692;51.074;-1.790;2023-09-19T05:15:16;100173.88;;;15.48;83.36
78407;BME280;67692;51.074;-1.790;2023-09-19T05:17:48;100173.88;;;15.48;83.54
78407;BME280;67692;51.074;-1.790;2023-09-19T05:20:15;100174.81;;;15.47;83.73
78407;BME280;67692;51.074;-1.790;2023-09-19T05:22:50;100168.13;;;15.44;84.27
78407;BME280;67692;51.074;-1.790;2023-09-19T05:25:16;100166.88;;;15.48;84.18
78407;BME280;67692;51.074;-1.790;2023-09-19T05:27:45;100172.22;;;15.47;84.42
78407;BME280;67692;51.074;-1.790;2023-09-19T05:30:12;100179.91;;;15.48;84.66
78407;BME280;67692;51.074;-1.790;2023-09-19T05:32:41;100181.25;;;15.53;84.25
78407;BME280;67692;51.074;-1.790;2023-09-19T05:35:09;100177.31;;;15.48;84.47
78407;BME280;67692;51.074;-1.790;2023-09-19T05:37:38;100175.06;;;15.54;84.56
78407;BME280;67692;51.074;-1.790;2023-09-19T05:40:06;100175.22;;;15.52;84.67
78407;BME280;67692;51.074;-1.790;2023-09-19T05:42:35;100177.97;;;15.51;84.52
78407;BME280;67692;51.074;-1.790;2023-09-19T05:45:05;100177.81;;;15.52;84.77
78407;BME280;67692;51.074;-1.790;2023-09-19T05:47:32;100171.13;;;15.50;84.41
78407;BME280;67692;51.074;-1.790;2023-09-19T05:49:59;100165.91;;;15.50;84.72
78407;BME280;67692;51.074;-1.790;2023-09-19T05:52:26;100163.13;;;15.51;84.83
78407;BME280;67692;51.074;-1.790;2023-09-19T05:54:52;100167.72;;;15.57;84.92
78407;BME280;67692;51.074;-1.790;2023-09-19T05:57:19;100163.34;;;15.58;84.41
78407;BME280;67692;51.074;-1.790;2023-09-19T05:59:47;100163.88;;;15.61;84.86
78407;BME280;67692;51.074;-1.790;2023-09-19T06:02:17;100165.53;;;15.62;84.93
78407;BME280;67692;51.074;-1.790;2023-09-19T06:04:45;100166.66;;;15.60;85.94
78407;BME280;67692;51.074;-1.790;2023-09-19T06:07:11;100163.59;;;15.64;86.23
78407;BME280;67692;51.074;-1.790;2023-09-19T06:09:38;100162.47;;;15.67;86.58
78407;BME280;67692;51.074;-1.790;2023-09-19T06:12:06;100157.41;;;15.65;86.83
78407;BME280;67692;51.074;-1.790;2023-09-19T06:14:32;100149.19;;;15.60;86.50
78407;BME280;67692;51.074;-1.790;2023-09-19T06:16:59;100144.94;;;15.59;86.71
78407;BME280;67692;51.074;-1.790;2023-09-19T06:19:27;100143.00;;;15.61;87.08
78407;BME280;67692;51.074;-1.790;2023-09-19T06:21:54;100127.06;;;15.64;87.72
78407;BME280;67692;51.074;-1.790;2023-09-19T06:24:21;100129.34;;;15.67;87.11
78407;BME280;67692;51.074;-1.790;2023-09-19T06:26:48;100137.50;;;15.64;87.23
78407;BME280;67692;51.074;-1.790;2023-09-19T06:29:14;100141.28;;;15.70;87.26
78407;BME280;67692;51.074;-1.790;2023-09-19T06:31:41;100138.19;;;15.74;86.87
78407;BME280;67692;51.074;-1.790;2023-09-19T06:34:09;100131.34;;;15.73;87.16
78407;BME280;67692;51.074;-1.790;2023-09-19T06:36:37;100130.75;;;15.80;86.79
78407;BME280;67692;51.074;-1.790;2023-09-19T06:39:04;100129.72;;;15.72;86.92
78407;BME280;67692;51.074;-1.790;2023-09-19T06:41:32;100132.78;;;15.68;87.25
78407;BME280;67692;51.074;-1.790;2023-09-19T06:43:58;100127.56;;;15.68;87.23
78407;BME280;67692;51.074;-1.790;2023-09-19T06:46:25;100115.03;;;15.71;87.42
78407;BME280;67692;51.074;-1.790;2023-09-19T06:48:58;100134.34;;;15.79;87.29
78407;BME280;67692;51.074;-1.790;2023-09-19T06:51:24;100120.75;;;15.75;87.82
78407;BME280;67692;51.074;-1.790;2023-09-19T06:53:52;100115.09;;;15.80;87.92
78407;BME280;67692;51.074;-1.790;2023-09-19T06:56:19;100128.44;;;15.76;88.16
78407;BME280;67692;51.074;-1.790;2023-09-19T06:58:50;100125.47;;;15.71;87.68
78407;BME280;67692;51.074;-1.790;2023-09-19T07:01:16;100112.91;;;15.75;88.10
78407;BME280;67692;51.074;-1.790;2023-09-19T07:03:43;100118.69;;;15.79;87.98
78407;BME280;67692;51.074;-1.790;2023-09-19T07:06:11;100113.44;;;15.79;88.02
78407;BME280;67692;51.074;-1.790;2023-09-19T07:08:37;100125.53;;;15.80;87.87
78407;BME280;67692;51.074;-1.790;2023-09-19T07:11:06;100127.84;;;15.83;87.86
78407;BME280;67692;51.074;-1.790;2023-09-19T07:13:33;100119.53;;;15.87;87.51
78407;BME280;67692;51.074;-1.790;2023-09-19T07:16:00;100109.31;;;15.94;87.24
78407;BME280;67692;51.074;-1.790;2023-09-19T07:18:27;100101.97;;;15.97;86.89
78407;BME280;67692;51.074;-1.790;2023-09-19T07:20:57;100123.69;;;15.98;86.30
78407;BME280;67692;51.074;-1.790;2023-09-19T07:23:26;100108.00;;;15.98;86.25
78407;BME280;67692;51.074;-1.790;2023-09-19T07:25:56;100109.66;;;15.99;86.07
78407;BME280;67692;51.074;-1.790;2023-09-19T07:28:25;100098.06;;;16.01;86.23
78407;BME280;67692;51.074;-1.790;2023-09-19T07:30:53;100093.34;;;16.05;86.42
78407;BME280;67692;51.074;-1.790;2023-09-19T07:33:19;100107.09;;;16.07;86.67
78407;BME280;67692;51.074;-1.790;2023-09-19T07:35:46;100101.56;;;16.10;86.68
78407;BME280;67692;51.074;-1.790;2023-09-19T07:38:13;100103.50;;;16.08;86.64
78407;BME280;67692;51.074;-1.790;2023-09-19T07:40:40;100112.50;;;16.14;86.53
78407;BME280;67692;51.074;-1.790;2023-09-19T07:43:06;100107.44;;;16.12;85.93
78407;BME280;67692;51.074;-1.790;2023-09-19T07:45:35;100100.06;;;16.08;85.95
78407;BME280;67692;51.074;-1.790;2023-09-19T07:48:02;100101.06;;;16.06;85.91
78407;BME280;67692;51.074;-1.790;2023-09-19T07:50:33;100103.78;;;16.05;86.64
78407;BME280;67692;51.074;-1.790;2023-09-19T07:53:02;100101.06;;;16.06;86.94
78407;BME280;67692;51.074;-1.790;2023-09-19T07:55:30;100101.19;;;16.05;86.67
78407;BME280;67692;51.074;-1.790;2023-09-19T07:57:59;100098.56;;;16.05;87.20
78407;BME280;67692;51.074;-1.790;2023-09-19T08:00:26;100091.09;;;16.10;87.06
78407;BME280;67692;51.074;-1.790;2023-09-19T08:02:54;100104.81;;;16.12;86.97
78407;BME280;67692;51.074;-1.790;2023-09-19T08:05:21;100100.22;;;16.06;87.14
78407;BME280;67692;51.074;-1.790;2023-09-19T08:07:47;100093.34;;;16.05;87.70
78407;BME280;67692;51.074;-1.790;2023-09-19T08:10:15;100095.28;;;16.03;87.96
78407;BME280;67692;51.074;-1.790;2023-09-19T08:12:45;100092.03;;;16.01;88.70
78407;BME280;67692;51.074;-1.790;2023-09-19T08:15:13;100088.75;;;15.99;88.83
78407;BME280;67692;51.074;-1.790;2023-09-19T08:17:42;100086.81;;;16.01;89.08
78407;BME280;67692;51.074;-1.790;2023-09-19T08:20:11;100085.16;;;16.00;89.79
78407;BME280;67692;51.074;-1.790;2023-09-19T08:22:43;100083.72;;;16.05;90.01
78407;BME280;67692;51.074;-1.790;2023-09-19T08:25:11;100088.34;;;16.12;89.99
78407;BME280;67692;51.074;-1.790;2023-09-19T08:27:38;100088.00;;;16.15;89.94
78407;BME280;67692;51.074;-1.790;2023-09-19T08:30:06;100082.31;;;16.19;90.13
78407;BME280;67692;51.074;-1.790;2023-09-19T08:32:32;100101.41;;;16.20;89.40
78407;BME280;67692;51.074;-1.790;2023-09-19T08:34:59;100084.94;;;16.19;88.88
78407;BME280;67692;51.074;-1.790;2023-09-19T08:37:27;100085.41;;;16.15;88.54
78407;BME280;67692;51.074;-1.790;2023-09-19T08:39:54;100091.94;;;16.19;87.47
78407;BME280;67692;51.074;-1.790;2023-09-19T08:42:20;100092.63;;;16.21;86.59
78407;BME280;67692;51.074;-1.790;2023-09-19T08:44:50;100089.53;;;16.25;86.47
78407;BME280;67692;51.074;-1.790;2023-09-19T08:47:33;100086.59;;;16.28;86.16
78407;BME280;67692;51.074;-1.790;2023-09-19T08:50:04;100086.75;;;16.27;86.06
78407;BME280;67692;51.074;-1.790;2023-09-19T08:52:41;100085.63;;;16.29;86.15
78407;BME280;67692;51.074;-1.790;2023-09-19T08:55:12;100095.16;;;16.39;86.42
78407;BME280;67692;51.074;-1.790;2023-09-19T08:57:41;100098.59;;;16.47;86.02
78407;BME280;67692;51.074;-1.790;2023-09-19T09:00:15;100078.38;;;16.57;86.47
78407;BME280;67692;51.074;-1.790;2023-09-19T09:02:43;100088.72;;;16.67;86.19
78407;BME280;67692;51.074;-1.790;2023-09-19T09:05:10;100087.25;;;16.73;85.90
78407;BME280;67692;51.074;-1.790;2023-09-19T09:07:39;100094.28;;;16.72;86.09
78407;BME280;67692;51.074;-1.790;2023-09-19T09:10:07;100103.28;;;16.70;86.61
78407;BME280;67692;51.074;-1.790;2023-09-19T09:12:34;100096.56;;;16.67;86.67
78407;BME280;67692;51.074;-1.790;2023-09-19T09:15:05;100090.66;;;16.65;85.85
78407;BME280;67692;51.074;-1.790;2023-09-19T09:17:34;100095.19;;;16.63;85.61
78407;BME280;67692;51.074;-1.790;2023-09-19T09:20:00;100102.28;;;16.71;85.65
78407;BME280;67692;51.074;-1.790;2023-09-19T09:22:27;100110.19;;;16.79;85.70
78407;BME280;67692;51.074;-1.790;2023-09-19T09:24:57;100096.28;;;16.78;86.47
78407;BME280;67692;51.074;-1.790;2023-09-19T09:27:24;100103.16;;;16.79;86.29
78407;BME280;67692;51.074;-1.790;2023-09-19T09:29:51;100087.59;;;16.78;86.25
78407;BME280;67692;51.074;-1.790;2023-09-19T09:32:21;100095.28;;;16.71;86.40
78407;BME280;67692;51.074;-1.790;2023-09-19T09:34:50;100113.09;;;16.68;86.78
78407;BME280;67692;51.074;-1.790;2023-09-19T09:37:17;100109.94;;;16.64;86.94
78407;BME280;67692;51.074;-1.790;2023-09-19T09:39:56;100105.00;;;16.61;87.56
78407;BME280;67692;51.074;-1.790;2023-09-19T09:42:29;100106.63;;;16.54;88.41
78407;BME280;67692;51.074;-1.790;2023-09-19T09:45:12;100100.75;;;16.60;88.53
78407;BME280;67692;51.074;-1.790;2023-09-19T09:47:43;100097.69;;;16.64;89.14
78407;BME280;67692;51.074;-1.790;2023-09-19T09:50:26;100099.69;;;16.71;89.24
78407;BME280;67692;51.074;-1.790;2023-09-19T09:53:19;100089.38;;;16.69;89.74
78407;BME280;67692;51.074;-1.790;2023-09-19T09:56:01;100092.66;;;16.71;89.66
78407;BME280;67692;51.074;-1.790;2023-09-19T09:58:31;100099.19;;;16.67;90.42
78407;BME280;67692;51.074;-1.790;2023-09-19T10:00:59;100098.88;;;16.70;90.68
78407;BME280;67692;51.074;-1.790;2023-09-19T10:03:33;100093.31;;;16.73;90.23
78407;BME280;67692;51.074;-1.790;2023-09-19T10:06:04;100095.44;;;16.78;90.76
78407;BME280;67692;51.074;-1.790;2023-09-19T10:08:57;100067.19;;;16.81;90.82
78407;BME280;67692;51.074;-1.790;2023-09-19T10:11:29;100081.41;;;16.79;91.08
78407;BME280;67692;51.074;-1.790;2023-09-19T10:13:56;100091.53;;;16.82;91.38
78407;BME280;67692;51.074;-1.790;2023-09-19T10:16:23;100071.28;;;16.84;90.38
78407;BME280;67692;51.074;-1.790;2023-09-19T10:18:53;100074.38;;;16.87;90.01
78407;BME280;67692;51.074;-1.790;2023-09-19T10:21:23;100074.38;;;16.79;90.09
78407;BME280;67692;51.074;-1.790;2023-09-19T10:23:51;100085.66;;;16.80;90.08
78407;BME280;67692;51.074;-1.790;2023-09-19T10:26:22;100072.59;;;16.80;90.34
78407;BME280;67692;51.074;-1.790;2023-09-19T10:28:51;100076.50;;;16.84;90.05
78407;BME280;67692;51.074;-1.790;2023-09-19T10:31:21;100069.47;;;16.84;89.77
78407;BME280;67692;51.074;-1.790;2023-09-19T10:33:52;100068.00;;;16.90;89.72
78407;BME280;67692;51.074;-1.790;2023-09-19T10:36:21;100079.28;;;16.90;89.36
78407;BME280;67692;51.074;-1.790;2023-09-19T10:38:52;100082.59;;;16.92;89.65
78407;BME280;67692;51.074;-1.790;2023-09-19T10:41:22;100080.44;;;16.88;89.64
78407;BME280;67692;51.074;-1.790;2023-09-19T10:43:48;100076.00;;;16.88;89.59
78407;BME280;67692;51.074;-1.790;2023-09-19T10:46:20;100087.81;;;16.92;89.65
78407;BME280;67692;51.074;-1.790;2023-09-19T10:48:47;100085.19;;;16.92;89.74
78407;BME280;67692;51.074;-1.790;2023-09-19T10:51:17;100083.72;;;17.06;89.19
78407;BME280;67692;51.074;-1.790;2023-09-19T10:53:50;100088.28;;;17.04;90.24
78407;BME280;67692;51.074;-1.790;2023-09-19T10:56:23;100098.59;;;17.06;91.00
78407;BME280;67692;51.074;-1.790;2023-09-19T10:59:05;100094.84;;;17.00;91.70
78407;BME280;67692;51.074;-1.790;2023-09-19T11:01:42;100097.63;;;16.99;92.23
78407;BME280;67692;51.074;-1.790;2023-09-19T11:04:21;100097.13;;;16.95;92.23
78407;BME280;67692;51.074;-1.790;2023-09-19T11:06:59;100100.19;;;16.90;92.82
78407;BME280;67692;51.074;-1.790;2023-09-19T11:09:43;100097.09;;;16.87;93.91
78407;BME280;67692;51.074;-1.790;2023-09-19T11:12:11;100091.06;;;16.86;94.94
78407;BME280;67692;51.074;-1.790;2023-09-19T11:14:42;100085.66;;;16.80;95.57
78407;BME280;67692;51.074;-1.790;2023-09-19T11:17:41;100086.94;;;16.76;96.26
78407;BME280;67692;51.074;-1.790;2023-09-19T11:20:25;100087.75;;;16.76;97.19
78407;BME280;67692;51.074;-1.790;2023-09-19T11:25:43;100082.38;;;16.86;97.03
78407;BME280;67692;51.074;-1.790;2023-09-19T11:28:32;100088.13;;;16.81;97.04
78407;BME280;67692;51.074;-1.790;2023-09-19T11:37:03;100074.56;;;17.02;98.36
78407;BME280;67692;51.074;-1.790;2023-09-19T11:39:30;100070.78;;;17.05;98.54
78407;BME280;67692;51.074;-1.790;2023-09-19T11:41:58;100076.53;;;17.08;98.67
78407;BME280;67692;51.074;-1.790;2023-09-19T11:44:32;100067.53;;;17.11;98.50
78407;BME280;67692;51.074;-1.790;2023-09-19T11:47:02;100079.16;;;17.16;97.91
78407;BME280;67692;51.074;-1.790;2023-09-19T11:49:30;100066.41;;;17.21;97.26
78407;BME280;67692;51.074;-1.790;2023-09-19T11:51:58;100057.56;;;17.22;96.80
78407;BME280;67692;51.074;-1.790;2023-09-19T11:54:29;100061.16;;;17.30;97.11
78407;BME280;67692;51.074;-1.790;2023-09-19T11:56:56;100059.34;;;17.30;97.05
78407;BME280;67692;51.074;-1.790;2023-09-19T11:59:24;100067.22;;;17.30;96.72
78407;BME280;67692;51.074;-1.790;2023-09-19T12:01:54;100067.03;;;17.32;97.17
78407;BME280;67692;51.074;-1.790;2023-09-19T12:04:33;100061.97;;;17.30;96.47
78407;BME280;67692;51.074;-1.790;2023-09-19T12:07:03;100062.97;;;17.29;96.66
78407;BME280;67692;51.074;-1.790;2023-09-19T12:09:32;100071.47;;;17.23;96.58
78407;BME280;67692;51.074;-1.790;2023-09-19T12:11:59;100063.94;;;17.20;97.01
78407;BME280;67692;51.074;-1.790;2023-09-19T12:14:26;100074.72;;;17.17;96.62
78407;BME280;67692;51.074;-1.790;2023-09-19T12:16:54;100067.88;;;17.16;96.65
78407;BME280;67692;51.074;-1.790;2023-09-19T12:19:22;100052.47;;;17.21;96.44
78407;BME280;67692;51.074;-1.790;2023-09-19T12:21:56;100055.09;;;17.29;97.05
78407;BME280;67692;51.074;-1.790;2023-09-19T12:24:26;100050.88;;;17.36;96.77
78407;BME280;67692;51.074;-1.790;2023-09-19T12:27:00;100049.22;;;17.43;96.26
78407;BME280;67692;51.074;-1.790;2023-09-19T12:29:27;100061.31;;;17.52;96.28
78407;BME280;67692;51.074;-1.790;2023-09-19T12:31:56;100067.50;;;17.60;95.38
78407;BME280;67692;51.074;-1.790;2023-09-19T12:34:24;100077.16;;;17.59;95.12
78407;BME280;67692;51.074;-1.790;2023-09-19T12:37:08;100073.72;;;17.59;95.24
78407;BME280;67692;51.074;-1.790;2023-09-19T12:39:42;100079.31;;;17.55;95.19
78407;BME280;67692;51.074;-1.790;2023-09-19T12:42:13;100074.06;;;17.55;94.94
78407;BME280;67692;51.074;-1.790;2023-09-19T12:44:41;100081.59;;;17.50;94.79
78407;BME280;67692;51.074;-1.790;2023-09-19T12:47:12;100078.81;;;17.44;94.76
78407;BME280;67692;51.074;-1.790;2023-09-19T12:50:06;100089.47;;;17.42;95.08
78407;BME280;67692;51.074;-1.790;2023-09-19T12:52:39;100085.03;;;17.35;95.81
78407;BME280;67692;51.074;-1.790;2023-09-19T12:55:06;100072.44;;;17.38;95.86
78407;BME280;67692;51.074;-1.790;2023-09-19T12:57:37;100077.69;;;17.38;96.26
78407;BME280;67692;51.074;-1.790;2023-09-19T13:00:05;100066.88;;;17.41;95.97
78407;BME280;67692;51.074;-1.790;2023-09-19T13:02:33;100074.56;;;17.43;95.99
78407;BME280;67692;51.074;-1.790;2023-09-19T13:04:59;100065.91;;;17.42;96.19